Nearby METAR Reports

 

KISP - Islip, New York, USA
Distance from station: SW 4mi, 6km
Updated: Mon, 02/18/2019 7:56 am EST
Light rain, Mist, Overcast
Light rain, Mist, Overcast
 Wind from E
Wind: E 7 mph , 11 km/h
Temperature: 34°F , 1°C
Wind Chill: 28°F , -2°C
Dew Point: 34°F , 1°C
Humidity: 100%
Barometer: 29.77 inHg , 1008.1 hPa
Summary: Light rain, Mist
Clouds: Overcast
Visibility: 4 miles , 6 km
Cloud details: Overcast 400 ft
2019/02/18 12:56 KISP 181256Z 09006KT 4SM -RA BR OVC004 01/01 A2977 RMK AO2 SLP081 P0001 T00110011
KHWV - Shirley, New York, USA
Distance from station: E 10mi, 16km
Updated: Mon, 02/18/2019 8:10 am EST
Mist, Overcast
Mist, Overcast
 Wind from ENE
Wind: ENE 3 mph , 6 km/h
Temperature: 34°F , 1°C
Dew Point: 34°F , 1°C
Humidity: 100%
Barometer: 29.79 inHg , 1008.8 hPa
Summary: Mist
Clouds: Overcast
Visibility: 3 miles , 5 km
Cloud details: Overcast 500 ft
2019/02/18 13:10 KHWV 181310Z AUTO 06003KT 3SM BR OVC005 01/01 A2979 RMK AO2 T00110006
 
KFRG - Farmingdale, New York, USA
Distance from station: WSW 20mi, 33km
Updated: Mon, 02/18/2019 8:13 am EST
Mist, Overcast
Mist, Overcast
 Wind from NNE
Wind: NNE 3 mph , 6 km/h
Temperature: 36°F , 2°C
Dew Point: 34°F , 1°C
Humidity: 93%
Barometer: 29.80 inHg , 1009.1 hPa
Summary: Mist
Clouds: Overcast
Visibility: 1 3/4 miles , 2.8 km
Cloud details: Overcast 400 ft
2019/02/18 13:13 KFRG 181313Z 02003KT 1 3/4SM BR OVC004 02/01 A2980 RMK AO2 SFC VIS 5 T00170006
KBDR - Bridgeport, Connecticut, USA
Distance from station: N 23mi, 37km
Updated: Mon, 02/18/2019 7:52 am EST
Overcast
Overcast
 Wind from NNE
Wind: NNE 8 mph , 13 km/h
Temperature: 34°F , 1°C
Wind Chill: 27°F , -3°C
Dew Point: 32°F , 0°C
Humidity: 93%
Barometer: 29.81 inHg , 1009.5 hPa
Clouds: Overcast
Visibility: 9 miles , 14 km
Cloud details: Mostly cloudy 600 ft
Overcast 1000 ft
2019/02/18 12:52 KBDR 181252Z 03007KT 9SM BKN006 OVC010 01/00 A2981 RMK AO2 RAE24UPB24E36 SLP093 P0000 T00060000
 
KFOK - Westhampton Beac, New York, USA
Distance from station: E 23mi, 37km
Updated: Mon, 02/18/2019 8:05 am EST
Mist, Overcast
Mist, Overcast
 Wind from E
Wind: E 5 mph , 7 km/h
Temperature: 36°F , 2°C
Wind Chill: 32°F , 0°C
Dew Point: 34°F , 1°C
Humidity: 93%
Barometer: 29.79 inHg , 1008.8 hPa
Summary: Mist
Clouds: Overcast
Visibility: 2 miles , 3 km
Cloud details: Overcast 500 ft
2019/02/18 13:05 KFOK 181305Z 08004KT 2SM BR OVC005 02/01 A2979 RMK AO2 RAE1257 P0000 T00170006
KHVN - New Haven/Tweed, Connecticut, USA
Distance from station: NNE 31mi, 50km
Updated: Mon, 02/18/2019 7:53 am EST
Overcast
Overcast
 Wind from NNE
Wind: NNE 7 mph , 11 km/h
Temperature: 34°F , 1°C
Wind Chill: 28°F , -2°C
Dew Point: 30°F , -1°C
Humidity: 87%
Barometer: 29.81 inHg , 1009.5 hPa
Clouds: Overcast
Visibility: 10 miles , 16 km
Cloud details: Overcast 700 ft
2019/02/18 12:53 KHVN 181253Z 02006KT 10SM OVC007 01/M01 A2981 RMK AO2 FZRAE16 SLP093 P0000 I1001 T00111006
 
KHPN - White Plains, New York, USA
Distance from station: WNW 37mi, 60km
Updated: Mon, 02/18/2019 7:56 am EST
Light drizzle, Mist, Overcast
Light drizzle, Mist, Overcast
 Wind from ENE
Wind: ENE 5 mph , 7 km/h
Temperature: 32°F , 0°C
Wind Chill: 27°F , -3°C
Dew Point: 32°F , 0°C
Humidity: 100%
Barometer: 29.78 inHg , 1008.5 hPa
Summary: Light drizzle, Mist
Clouds: Overcast
Visibility: 1 mile , 2 km
Cloud details: Overcast 200 ft
2019/02/18 12:56 KHPN 181256Z 07004KT 1SM R16/P6000FT -DZ BR VV002 00/00 A2978 RMK AO2 SLP093 P0000 T00000000
KJFK - Nyc/Jfk Arpt, New York, USA
Distance from station: WSW 40mi, 64km
Updated: Mon, 02/18/2019 7:51 am EST
Light drizzle, Mist, Overcast
Light drizzle, Mist, Overcast
 Wind from N
Wind: N 6 mph , 9 km/h
Temperature: 36°F , 2°C
Wind Chill: 31°F , -1°C
Dew Point: 36°F , 2°C
Humidity: 100%
Barometer: 29.82 inHg , 1009.8 hPa
Summary: Light drizzle, Mist
Clouds: Overcast
Visibility: 1 mile , 2 km
Cloud details: Few Clouds 0 ft
Overcast 400 ft
2019/02/18 12:51 KJFK 181251Z 35005KT 1SM R04R/P6000FT -DZ BR FEW000 OVC004 02/02 A2982 RMK AO2 SFC VIS 2 RAE22DZB22 SLP097 BR FEW000 P0002 T00220022 $
 
KDXR - Danbury, Connecticut, USA
Distance from station: NNW 42mi, 68km
Updated: Mon, 02/18/2019 8:01 am EST
Mist, Overcast
Mist, Overcast
 Wind from NNE
Wind: NNE 5 mph , 7 km/h
Temperature: 30°F , -1°C
Wind Chill: 25°F , -4°C
Dew Point: 28°F , -2°C
Humidity: 93%
Barometer: 29.81 inHg , 1009.5 hPa
Summary: Mist
Clouds: Overcast
Visibility: 1 3/4 miles , 2.8 km
Cloud details: Overcast 400 ft
2019/02/18 13:01 KDXR 181301Z 02004KT 1 3/4SM BR OVC004 M01/M02 A2981 RMK AO2 T10111022
KHTO - East Hampton, New York, USA
Distance from station: E 43mi, 69km
Updated: Mon, 02/18/2019 8:15 am EST
Light drizzle, Overcast
Light drizzle, Overcast
 Wind from E
Wind: E 6 mph , 9 km/h
Temperature: 34°F , 1°C
Wind Chill: 29°F , -2°C
Dew Point: 32°F , 0°C
Humidity: 93%
Barometer: 29.77 inHg , 1008.1 hPa
Summary: Light Drizzle
Clouds: Overcast
Visibility: 2 miles , 3 km
Cloud details: Overcast 400 ft
2019/02/18 13:15 KHTO 181315Z AUTO 09005KT 2SM -DZ OVC004 01/00 A2977 RMK AO2 P0001 T00050001
 
KOXC - Oxford/Waterbury, Connecticut, USA
Distance from station: N 43mi, 70km
Updated: Mon, 02/18/2019 7:51 am EST
Mist, Overcast
Mist, Overcast
 Wind from ENE
Wind: ENE 8 mph , 13 km/h
Temperature: 27°F , -3°C
Wind Chill: 19°F , -7°C
Dew Point: 27°F , -3°C
Humidity: 100%
Barometer: 29.77 inHg , 1008.1 hPa
Summary: Mist
Clouds: Overcast
Visibility: 2 miles , 3 km
Cloud details: Overcast 200 ft
2019/02/18 12:51 KOXC 181251Z 06007KT 2SM BR OVC002 M03/M03 A2977 RMK AO2 SLP101 T10281028
KLGA - Nyc/La Guardia, New York, USA
Distance from station: W 44mi, 70km
Updated: Mon, 02/18/2019 7:51 am EST
Light drizzle, Mist, Overcast
Light drizzle, Mist, Overcast
 Wind from NNE
Wind: NNE 3 mph , 6 km/h
Temperature: 36°F , 2°C
Dew Point: 34°F , 1°C
Humidity: 93%
Barometer: 29.81 inHg , 1009.5 hPa
Summary: Light drizzle, Mist
Clouds: Overcast
Visibility: 2 miles , 3 km
Cloud details: Overcast 400 ft
2019/02/18 12:51 KLGA 181251Z 02003KT 2SM -DZ BR OVC004 02/01 A2981 RMK AO2 SLP092 P0001 T00170006
 
KSNC - Chester, Connecticut, USA
Distance from station: NE 47mi, 76km
Updated: Mon, 02/18/2019 8:15 am EST
Overcast
Overcast
 Wind from calm
Wind: Calm
Temperature: 30°F , -1°C
Dew Point: 30°F , -1°C
Humidity: 100%
Barometer: 29.76 inHg , 1007.8 hPa
Clouds: Overcast
Visibility: 10 miles , 16 km
Cloud details: Overcast 500 ft
2019/02/18 13:15 KSNC 181315Z AUTO 00000KT 10SM OVC005 M01/M01 A2976 RMK AO2
KMMK - Meriden, Connecticut, USA
Distance from station: NNE 48mi, 77km
Updated: Mon, 02/18/2019 7:53 am EST
Mist, Overcast
Mist, Overcast
 Wind from NNW
Wind: NNW 7 mph , 11 km/h
Temperature: 28°F , -2°C
Wind Chill: 21°F , -6°C
Dew Point: 27°F , -3°C
Humidity: 93%
Barometer: 29.81 inHg , 1009.5 hPa
Summary: Mist
Clouds: Overcast
Visibility: 6 miles , 10 km
Cloud details: Overcast 600 ft
2019/02/18 12:53 KMMK 181253Z AUTO 33006KT 6SM BR OVC006 M02/M03 A2981 RMK AO2 SLP095 T10171028
 
KNYC - Nyc/Central Park, New York, USA
Distance from station: W 48mi, 77km
Updated: Mon, 02/18/2019 8:02 am EST
Mist, Overcast
Mist, Overcast
 
Temperature: 36°F , 2°C
Dew Point: 34°F , 1°C
Humidity: 93%
Barometer: 29.82 inHg , 1009.8 hPa
Summary: Mist
Clouds: Overcast
Visibility: 2 miles , 3 km
Cloud details: Overcast 700 ft
2019/02/18 13:02 KNYC 181302Z AUTO 2SM BR OVC007 02/01 A2982 RMK AO2 T00170011 $